sensor_id;sensor_type;location;lat;lon;timestamp;P1;durP1;ratioP1;P2;durP2;ratioP2
26634;SDS011;14490;54.208;37.686;2022-08-03T00:01:57;7.03;;;3.70;;
26634;SDS011;14490;54.208;37.686;2022-08-03T00:04:26;11.70;;;4.15;;
26634;SDS011;14490;54.208;37.686;2022-08-03T00:06:53;8.23;;;4.20;;
26634;SDS011;14490;54.208;37.686;2022-08-03T00:09:20;5.38;;;4.40;;
26634;SDS011;14490;54.208;37.686;2022-08-03T00:11:50;7.10;;;3.90;;
26634;SDS011;14490;54.208;37.686;2022-08-03T00:14:17;7.90;;;4.20;;
26634;SDS011;14490;54.208;37.686;2022-08-03T00:16:45;4.20;;;3.90;;
26634;SDS011;14490;54.208;37.686;2022-08-03T00:19:12;6.20;;;4.05;;
26634;SDS011;14490;54.208;37.686;2022-08-03T00:21:40;11.95;;;4.13;;
26634;SDS011;14490;54.208;37.686;2022-08-03T00:24:07;8.55;;;3.70;;
26634;SDS011;14490;54.208;37.686;2022-08-03T00:26:35;6.00;;;4.60;;
26634;SDS011;14490;54.208;37.686;2022-08-03T00:29:05;8.70;;;4.30;;
26634;SDS011;14490;54.208;37.686;2022-08-03T00:31:33;5.25;;;4.30;;
26634;SDS011;14490;54.208;37.686;2022-08-03T00:34:02;8.68;;;4.03;;
26634;SDS011;14490;54.208;37.686;2022-08-03T00:36:33;7.70;;;4.65;;
26634;SDS011;14490;54.208;37.686;2022-08-03T00:39:02;8.05;;;4.30;;
26634;SDS011;14490;54.208;37.686;2022-08-03T00:41:31;12.50;;;5.10;;
26634;SDS011;14490;54.208;37.686;2022-08-03T00:43:59;3.90;;;3.53;;
26634;SDS011;14490;54.208;37.686;2022-08-03T00:46:29;9.80;;;3.30;;
26634;SDS011;14490;54.208;37.686;2022-08-03T00:48:57;6.40;;;4.30;;
26634;SDS011;14490;54.208;37.686;2022-08-03T00:51:25;5.03;;;3.20;;
26634;SDS011;14490;54.208;37.686;2022-08-03T00:53:55;5.35;;;3.95;;
26634;SDS011;14490;54.208;37.686;2022-08-03T00:56:24;5.57;;;4.28;;
26634;SDS011;14490;54.208;37.686;2022-08-03T00:58:52;10.57;;;3.83;;
26634;SDS011;14490;54.208;37.686;2022-08-03T01:01:23;7.57;;;3.70;;
26634;SDS011;14490;54.208;37.686;2022-08-03T01:03:54;3.97;;;3.50;;
26634;SDS011;14490;54.208;37.686;2022-08-03T01:06:23;5.35;;;3.83;;
26634;SDS011;14490;54.208;37.686;2022-08-03T01:09:00;8.43;;;4.07;;
26634;SDS011;14490;54.208;37.686;2022-08-03T01:11:38;7.60;;;3.78;;
26634;SDS011;14490;54.208;37.686;2022-08-03T01:14:20;7.00;;;3.70;;
26634;SDS011;14490;54.208;37.686;2022-08-03T01:16:55;5.32;;;4.32;;
26634;SDS011;14490;54.208;37.686;2022-08-03T01:19:40;4.93;;;2.95;;
26634;SDS011;14490;54.208;37.686;2022-08-03T01:25:13;8.57;;;3.92;;
26634;SDS011;14490;54.208;37.686;2022-08-03T01:28:01;4.85;;;3.63;;
26634;SDS011;14490;54.208;37.686;2022-08-03T01:30:50;7.55;;;4.18;;
26634;SDS011;14490;54.208;37.686;2022-08-03T01:33:23;7.95;;;3.85;;
26634;SDS011;14490;54.208;37.686;2022-08-03T01:35:57;3.83;;;3.47;;
26634;SDS011;14490;54.208;37.686;2022-08-03T01:38:31;3.83;;;3.45;;
26634;SDS011;14490;54.208;37.686;2022-08-03T01:41:03;7.13;;;3.95;;
26634;SDS011;14490;54.208;37.686;2022-08-03T01:43:39;4.82;;;3.70;;
26634;SDS011;14490;54.208;37.686;2022-08-03T01:46:17;7.22;;;3.70;;
26634;SDS011;14490;54.208;37.686;2022-08-03T01:48:47;11.05;;;3.53;;
26634;SDS011;14490;54.208;37.686;2022-08-03T01:51:17;8.68;;;4.35;;
26634;SDS011;14490;54.208;37.686;2022-08-03T01:53:48;7.97;;;3.92;;
26634;SDS011;14490;54.208;37.686;2022-08-03T01:56:19;9.52;;;3.55;;
26634;SDS011;14490;54.208;37.686;2022-08-03T01:58:51;6.93;;;3.40;;
26634;SDS011;14490;54.208;37.686;2022-08-03T02:01:24;8.52;;;3.78;;
26634;SDS011;14490;54.208;37.686;2022-08-03T02:03:56;5.45;;;3.55;;
26634;SDS011;14490;54.208;37.686;2022-08-03T02:06:27;5.25;;;3.75;;
26634;SDS011;14490;54.208;37.686;2022-08-03T02:09:03;9.35;;;4.00;;
26634;SDS011;14490;54.208;37.686;2022-08-03T02:11:33;7.78;;;4.00;;
26634;SDS011;14490;54.208;37.686;2022-08-03T02:14:03;10.32;;;3.97;;
26634;SDS011;14490;54.208;37.686;2022-08-03T02:16:34;7.25;;;3.67;;
26634;SDS011;14490;54.208;37.686;2022-08-03T02:19:04;6.22;;;4.07;;
26634;SDS011;14490;54.208;37.686;2022-08-03T02:24:03;9.27;;;3.55;;
26634;SDS011;14490;54.208;37.686;2022-08-03T02:26:33;9.33;;;3.53;;
26634;SDS011;14490;54.208;37.686;2022-08-03T02:29:06;5.53;;;4.18;;
26634;SDS011;14490;54.208;37.686;2022-08-03T02:31:40;7.85;;;3.50;;
26634;SDS011;14490;54.208;37.686;2022-08-03T02:34:12;6.88;;;3.63;;
26634;SDS011;14490;54.208;37.686;2022-08-03T02:36:42;7.47;;;3.97;;
26634;SDS011;14490;54.208;37.686;2022-08-03T02:39:14;7.72;;;3.65;;
26634;SDS011;14490;54.208;37.686;2022-08-03T02:41:47;6.00;;;3.63;;
26634;SDS011;14490;54.208;37.686;2022-08-03T02:44:26;4.95;;;3.75;;
26634;SDS011;14490;54.208;37.686;2022-08-03T02:47:00;8.82;;;4.45;;
26634;SDS011;14490;54.208;37.686;2022-08-03T02:49:31;5.68;;;4.50;;
26634;SDS011;14490;54.208;37.686;2022-08-03T02:52:01;6.43;;;4.53;;
26634;SDS011;14490;54.208;37.686;2022-08-03T02:54:30;6.05;;;4.65;;
26634;SDS011;14490;54.208;37.686;2022-08-03T02:57:00;5.40;;;4.38;;
26634;SDS011;14490;54.208;37.686;2022-08-03T02:59:29;6.70;;;3.83;;
26634;SDS011;14490;54.208;37.686;2022-08-03T03:01:59;10.20;;;4.95;;
26634;SDS011;14490;54.208;37.686;2022-08-03T03:04:28;11.63;;;5.07;;
26634;SDS011;14490;54.208;37.686;2022-08-03T03:06:56;8.55;;;4.35;;
26634;SDS011;14490;54.208;37.686;2022-08-03T03:09:25;7.22;;;4.43;;
26634;SDS011;14490;54.208;37.686;2022-08-03T03:11:53;8.80;;;5.35;;
26634;SDS011;14490;54.208;37.686;2022-08-03T03:14:22;11.30;;;5.50;;
26634;SDS011;14490;54.208;37.686;2022-08-03T03:16:51;7.80;;;4.60;;
26634;SDS011;14490;54.208;37.686;2022-08-03T03:19:23;10.23;;;4.95;;
26634;SDS011;14490;54.208;37.686;2022-08-03T03:21:53;9.55;;;4.68;;
26634;SDS011;14490;54.208;37.686;2022-08-03T03:24:23;7.55;;;4.43;;
26634;SDS011;14490;54.208;37.686;2022-08-03T03:26:53;7.97;;;4.88;;
26634;SDS011;14490;54.208;37.686;2022-08-03T03:29:23;8.30;;;4.50;;
26634;SDS011;14490;54.208;37.686;2022-08-03T03:31:59;9.05;;;4.90;;
26634;SDS011;14490;54.208;37.686;2022-08-03T03:34:31;11.50;;;5.47;;
26634;SDS011;14490;54.208;37.686;2022-08-03T03:37:01;7.70;;;4.68;;
26634;SDS011;14490;54.208;37.686;2022-08-03T03:39:29;5.10;;;4.45;;
26634;SDS011;14490;54.208;37.686;2022-08-03T03:41:57;12.40;;;4.47;;
26634;SDS011;14490;54.208;37.686;2022-08-03T03:44:26;13.23;;;5.18;;
26634;SDS011;14490;54.208;37.686;2022-08-03T03:46:55;7.97;;;4.55;;
26634;SDS011;14490;54.208;37.686;2022-08-03T03:49:23;12.32;;;5.45;;
26634;SDS011;14490;54.208;37.686;2022-08-03T03:51:54;7.40;;;4.78;;
26634;SDS011;14490;54.208;37.686;2022-08-03T03:54:21;12.05;;;5.50;;
26634;SDS011;14490;54.208;37.686;2022-08-03T03:56:49;12.95;;;5.63;;
26634;SDS011;14490;54.208;37.686;2022-08-03T03:59:17;7.47;;;4.82;;
26634;SDS011;14490;54.208;37.686;2022-08-03T04:01:44;11.73;;;4.90;;
26634;SDS011;14490;54.208;37.686;2022-08-03T04:04:12;10.43;;;5.53;;
26634;SDS011;14490;54.208;37.686;2022-08-03T04:06:58;9.93;;;4.35;;
26634;SDS011;14490;54.208;37.686;2022-08-03T04:09:43;5.30;;;4.63;;
26634;SDS011;14490;54.208;37.686;2022-08-03T04:12:30;7.97;;;5.00;;
26634;SDS011;14490;54.208;37.686;2022-08-03T04:14:58;7.13;;;4.75;;
26634;SDS011;14490;54.208;37.686;2022-08-03T04:17:28;8.32;;;4.78;;
26634;SDS011;14490;54.208;37.686;2022-08-03T04:19:58;11.02;;;5.00;;
26634;SDS011;14490;54.208;37.686;2022-08-03T04:22:32;9.32;;;4.93;;
26634;SDS011;14490;54.208;37.686;2022-08-03T04:25:04;7.03;;;4.40;;
26634;SDS011;14490;54.208;37.686;2022-08-03T04:27:39;12.98;;;5.18;;
26634;SDS011;14490;54.208;37.686;2022-08-03T04:30:09;8.35;;;4.30;;
26634;SDS011;14490;54.208;37.686;2022-08-03T04:32:38;6.00;;;4.80;;
26634;SDS011;14490;54.208;37.686;2022-08-03T04:35:08;9.20;;;4.70;;
26634;SDS011;14490;54.208;37.686;2022-08-03T04:37:38;15.32;;;5.40;;
26634;SDS011;14490;54.208;37.686;2022-08-03T04:40:12;10.25;;;5.25;;
26634;SDS011;14490;54.208;37.686;2022-08-03T04:45:10;16.05;;;5.00;;
26634;SDS011;14490;54.208;37.686;2022-08-03T04:47:39;8.85;;;4.45;;
26634;SDS011;14490;54.208;37.686;2022-08-03T04:50:07;9.35;;;4.15;;
26634;SDS011;14490;54.208;37.686;2022-08-03T04:52:38;12.93;;;4.97;;
26634;SDS011;14490;54.208;37.686;2022-08-03T04:55:06;9.82;;;5.50;;
26634;SDS011;14490;54.208;37.686;2022-08-03T04:57:34;11.57;;;4.72;;
26634;SDS011;14490;54.208;37.686;2022-08-03T05:00:02;10.73;;;4.97;;
26634;SDS011;14490;54.208;37.686;2022-08-03T05:02:31;13.43;;;5.40;;
26634;SDS011;14490;54.208;37.686;2022-08-03T05:04:59;20.10;;;6.40;;
26634;SDS011;14490;54.208;37.686;2022-08-03T05:07:27;23.23;;;6.90;;
26634;SDS011;14490;54.208;37.686;2022-08-03T05:09:56;10.68;;;5.80;;
26634;SDS011;14490;54.208;37.686;2022-08-03T05:12:23;15.00;;;6.20;;
26634;SDS011;14490;54.208;37.686;2022-08-03T05:14:51;20.35;;;6.45;;
26634;SDS011;14490;54.208;37.686;2022-08-03T05:17:20;24.08;;;6.50;;
26634;SDS011;14490;54.208;37.686;2022-08-03T05:19:47;10.07;;;6.13;;
26634;SDS011;14490;54.208;37.686;2022-08-03T05:22:15;13.90;;;6.32;;
26634;SDS011;14490;54.208;37.686;2022-08-03T05:24:42;13.90;;;6.22;;
26634;SDS011;14490;54.208;37.686;2022-08-03T05:27:11;17.13;;;5.90;;
26634;SDS011;14490;54.208;37.686;2022-08-03T05:29:43;14.70;;;6.25;;
26634;SDS011;14490;54.208;37.686;2022-08-03T05:32:11;22.00;;;7.60;;
26634;SDS011;14490;54.208;37.686;2022-08-03T05:34:39;25.42;;;9.45;;
26634;SDS011;14490;54.208;37.686;2022-08-03T05:37:06;21.45;;;8.07;;
26634;SDS011;14490;54.208;37.686;2022-08-03T05:39:35;20.63;;;7.90;;
26634;SDS011;14490;54.208;37.686;2022-08-03T05:42:02;20.23;;;7.47;;
26634;SDS011;14490;54.208;37.686;2022-08-03T05:44:31;18.80;;;7.03;;
26634;SDS011;14490;54.208;37.686;2022-08-03T05:47:02;14.38;;;5.60;;
26634;SDS011;14490;54.208;37.686;2022-08-03T05:49:30;17.65;;;6.57;;
26634;SDS011;14490;54.208;37.686;2022-08-03T05:51:58;21.38;;;6.75;;
26634;SDS011;14490;54.208;37.686;2022-08-03T05:54:25;14.85;;;7.88;;
26634;SDS011;14490;54.208;37.686;2022-08-03T05:56:53;17.95;;;8.15;;
26634;SDS011;14490;54.208;37.686;2022-08-03T05:59:20;12.15;;;5.63;;
26634;SDS011;14490;54.208;37.686;2022-08-03T06:01:51;10.57;;;4.95;;
26634;SDS011;14490;54.208;37.686;2022-08-03T06:04:18;12.02;;;4.85;;
26634;SDS011;14490;54.208;37.686;2022-08-03T06:06:46;12.57;;;5.80;;
26634;SDS011;14490;54.208;37.686;2022-08-03T06:09:14;20.17;;;5.72;;
26634;SDS011;14490;54.208;37.686;2022-08-03T06:11:43;14.68;;;5.95;;
26634;SDS011;14490;54.208;37.686;2022-08-03T06:14:10;14.20;;;5.18;;
26634;SDS011;14490;54.208;37.686;2022-08-03T06:16:38;10.85;;;4.45;;
26634;SDS011;14490;54.208;37.686;2022-08-03T06:19:07;8.75;;;4.60;;
26634;SDS011;14490;54.208;37.686;2022-08-03T06:21:34;19.23;;;5.97;;
26634;SDS011;14490;54.208;37.686;2022-08-03T06:24:02;11.73;;;6.25;;
26634;SDS011;14490;54.208;37.686;2022-08-03T06:26:30;14.63;;;5.22;;
26634;SDS011;14490;54.208;37.686;2022-08-03T06:28:59;13.90;;;4.88;;
26634;SDS011;14490;54.208;37.686;2022-08-03T06:31:27;16.75;;;4.55;;
26634;SDS011;14490;54.208;37.686;2022-08-03T06:33:55;9.75;;;4.70;;
26634;SDS011;14490;54.208;37.686;2022-08-03T06:36:24;8.50;;;4.32;;
26634;SDS011;14490;54.208;37.686;2022-08-03T06:38:55;15.15;;;4.30;;
26634;SDS011;14490;54.208;37.686;2022-08-03T06:41:23;10.15;;;4.88;;
26634;SDS011;14490;54.208;37.686;2022-08-03T06:43:51;9.40;;;4.55;;
26634;SDS011;14490;54.208;37.686;2022-08-03T06:46:25;6.53;;;4.07;;
26634;SDS011;14490;54.208;37.686;2022-08-03T06:48:53;6.53;;;4.05;;
26634;SDS011;14490;54.208;37.686;2022-08-03T06:51:20;4.95;;;3.80;;
26634;SDS011;14490;54.208;37.686;2022-08-03T06:53:50;8.55;;;4.50;;
26634;SDS011;14490;54.208;37.686;2022-08-03T06:56:17;9.55;;;4.45;;
26634;SDS011;14490;54.208;37.686;2022-08-03T06:58:45;6.65;;;4.03;;
26634;SDS011;14490;54.208;37.686;2022-08-03T07:01:13;8.95;;;4.10;;
26634;SDS011;14490;54.208;37.686;2022-08-03T07:03:42;9.05;;;4.75;;
26634;SDS011;14490;54.208;37.686;2022-08-03T07:06:10;5.00;;;3.60;;
26634;SDS011;14490;54.208;37.686;2022-08-03T07:08:37;6.40;;;3.65;;
26634;SDS011;14490;54.208;37.686;2022-08-03T07:11:06;4.63;;;3.40;;
26634;SDS011;14490;54.208;37.686;2022-08-03T07:13:34;10.35;;;4.07;;
26634;SDS011;14490;54.208;37.686;2022-08-03T07:16:02;5.97;;;4.00;;
26634;SDS011;14490;54.208;37.686;2022-08-03T07:18:30;9.27;;;3.78;;
26634;SDS011;14490;54.208;37.686;2022-08-03T07:20:57;4.80;;;4.10;;
26634;SDS011;14490;54.208;37.686;2022-08-03T07:23:25;7.47;;;4.78;;
26634;SDS011;14490;54.208;37.686;2022-08-03T07:25:52;4.85;;;3.28;;
26634;SDS011;14490;54.208;37.686;2022-08-03T07:28:21;6.20;;;3.95;;
26634;SDS011;14490;54.208;37.686;2022-08-03T07:30:49;11.00;;;4.03;;
26634;SDS011;14490;54.208;37.686;2022-08-03T07:33:17;8.23;;;3.90;;
26634;SDS011;14490;54.208;37.686;2022-08-03T07:35:45;9.20;;;5.22;;
26634;SDS011;14490;54.208;37.686;2022-08-03T07:38:12;6.65;;;3.58;;
26634;SDS011;14490;54.208;37.686;2022-08-03T07:40:40;7.85;;;4.70;;
26634;SDS011;14490;54.208;37.686;2022-08-03T07:43:08;5.13;;;4.57;;
26634;SDS011;14490;54.208;37.686;2022-08-03T07:45:37;9.65;;;4.32;;
26634;SDS011;14490;54.208;37.686;2022-08-03T07:48:04;7.93;;;4.07;;
26634;SDS011;14490;54.208;37.686;2022-08-03T07:50:32;13.75;;;4.90;;
26634;SDS011;14490;54.208;37.686;2022-08-03T07:52:59;8.65;;;3.65;;
26634;SDS011;14490;54.208;37.686;2022-08-03T07:55:27;6.15;;;3.40;;
26634;SDS011;14490;54.208;37.686;2022-08-03T07:58:02;5.38;;;3.63;;
26634;SDS011;14490;54.208;37.686;2022-08-03T08:00:33;10.07;;;4.25;;
26634;SDS011;14490;54.208;37.686;2022-08-03T08:03:03;4.10;;;3.17;;
26634;SDS011;14490;54.208;37.686;2022-08-03T08:05:31;7.28;;;4.03;;
26634;SDS011;14490;54.208;37.686;2022-08-03T08:07:59;4.43;;;2.88;;
26634;SDS011;14490;54.208;37.686;2022-08-03T08:10:27;6.60;;;3.63;;
26634;SDS011;14490;54.208;37.686;2022-08-03T08:12:55;5.95;;;3.40;;
26634;SDS011;14490;54.208;37.686;2022-08-03T08:15:23;4.05;;;3.40;;
26634;SDS011;14490;54.208;37.686;2022-08-03T08:17:51;8.48;;;3.70;;
26634;SDS011;14490;54.208;37.686;2022-08-03T08:20:22;7.22;;;3.03;;
26634;SDS011;14490;54.208;37.686;2022-08-03T08:22:51;3.97;;;3.03;;
26634;SDS011;14490;54.208;37.686;2022-08-03T08:25:18;7.78;;;3.53;;
26634;SDS011;14490;54.208;37.686;2022-08-03T08:27:47;7.28;;;3.35;;
26634;SDS011;14490;54.208;37.686;2022-08-03T08:30:16;10.48;;;3.17;;
26634;SDS011;14490;54.208;37.686;2022-08-03T08:32:45;4.78;;;3.50;;
26634;SDS011;14490;54.208;37.686;2022-08-03T08:35:14;8.60;;;3.20;;
26634;SDS011;14490;54.208;37.686;2022-08-03T08:37:44;3.85;;;2.58;;
26634;SDS011;14490;54.208;37.686;2022-08-03T08:40:12;8.32;;;3.50;;
26634;SDS011;14490;54.208;37.686;2022-08-03T08:42:40;10.02;;;4.07;;
26634;SDS011;14490;54.208;37.686;2022-08-03T08:45:09;3.83;;;3.05;;
26634;SDS011;14490;54.208;37.686;2022-08-03T08:47:40;6.65;;;3.10;;
26634;SDS011;14490;54.208;37.686;2022-08-03T08:50:12;4.53;;;2.40;;
26634;SDS011;14490;54.208;37.686;2022-08-03T08:52:45;4.03;;;3.08;;
26634;SDS011;14490;54.208;37.686;2022-08-03T08:55:14;8.57;;;3.13;;
26634;SDS011;14490;54.208;37.686;2022-08-03T08:57:48;7.75;;;3.15;;
26634;SDS011;14490;54.208;37.686;2022-08-03T09:00:18;13.45;;;4.45;;
26634;SDS011;14490;54.208;37.686;2022-08-03T09:02:46;9.45;;;3.88;;
26634;SDS011;14490;54.208;37.686;2022-08-03T09:05:14;5.90;;;3.47;;
26634;SDS011;14490;54.208;37.686;2022-08-03T09:07:45;8.30;;;3.65;;
26634;SDS011;14490;54.208;37.686;2022-08-03T09:10:14;4.88;;;2.58;;
26634;SDS011;14490;54.208;37.686;2022-08-03T09:12:47;6.38;;;3.25;;
26634;SDS011;14490;54.208;37.686;2022-08-03T09:15:18;4.95;;;2.85;;
26634;SDS011;14490;54.208;37.686;2022-08-03T09:20:15;5.45;;;3.40;;
26634;SDS011;14490;54.208;37.686;2022-08-03T09:22:53;7.20;;;4.85;;
26634;SDS011;14490;54.208;37.686;2022-08-03T09:25:29;10.40;;;5.20;;
26634;SDS011;14490;54.208;37.686;2022-08-03T09:28:03;8.57;;;5.15;;
26634;SDS011;14490;54.208;37.686;2022-08-03T09:30:38;5.75;;;4.75;;
26634;SDS011;14490;54.208;37.686;2022-08-03T09:33:07;5.75;;;4.95;;
26634;SDS011;14490;54.208;37.686;2022-08-03T09:35:40;5.07;;;4.43;;
26634;SDS011;14490;54.208;37.686;2022-08-03T09:38:11;10.70;;;4.65;;
26634;SDS011;14490;54.208;37.686;2022-08-03T09:40:40;9.00;;;3.97;;
26634;SDS011;14490;54.208;37.686;2022-08-03T09:43:08;8.43;;;4.25;;
26634;SDS011;14490;54.208;37.686;2022-08-03T09:45:37;4.80;;;3.10;;
26634;SDS011;14490;54.208;37.686;2022-08-03T09:48:19;7.25;;;3.33;;
26634;SDS011;14490;54.208;37.686;2022-08-03T09:50:49;4.03;;;3.22;;
26634;SDS011;14490;54.208;37.686;2022-08-03T09:53:18;5.60;;;3.70;;
26634;SDS011;14490;54.208;37.686;2022-08-03T09:55:50;4.43;;;2.92;;
26634;SDS011;14490;54.208;37.686;2022-08-03T09:58:20;6.15;;;3.13;;
26634;SDS011;14490;54.208;37.686;2022-08-03T10:00:52;11.32;;;4.78;;
26634;SDS011;14490;54.208;37.686;2022-08-03T10:03:23;4.53;;;3.33;;
26634;SDS011;14490;54.208;37.686;2022-08-03T10:05:52;8.40;;;3.30;;
26634;SDS011;14490;54.208;37.686;2022-08-03T10:08:22;7.72;;;3.65;;
26634;SDS011;14490;54.208;37.686;2022-08-03T10:10:50;3.63;;;3.25;;
26634;SDS011;14490;54.208;37.686;2022-08-03T10:13:20;4.22;;;3.05;;
26634;SDS011;14490;54.208;37.686;2022-08-03T10:15:48;4.97;;;3.63;;
26634;SDS011;14490;54.208;37.686;2022-08-03T10:18:16;6.20;;;3.45;;
26634;SDS011;14490;54.208;37.686;2022-08-03T10:20:45;5.25;;;3.53;;
26634;SDS011;14490;54.208;37.686;2022-08-03T10:23:17;5.43;;;3.22;;
26634;SDS011;14490;54.208;37.686;2022-08-03T10:25:48;5.95;;;3.28;;
26634;SDS011;14490;54.208;37.686;2022-08-03T10:28:21;3.78;;;2.88;;
26634;SDS011;14490;54.208;37.686;2022-08-03T10:30:51;6.05;;;2.92;;
26634;SDS011;14490;54.208;37.686;2022-08-03T10:33:21;7.43;;;2.40;;
26634;SDS011;14490;54.208;37.686;2022-08-03T10:35:54;4.65;;;2.80;;
26634;SDS011;14490;54.208;37.686;2022-08-03T10:38:24;4.28;;;2.70;;
26634;SDS011;14490;54.208;37.686;2022-08-03T10:40:59;6.97;;;2.88;;
26634;SDS011;14490;54.208;37.686;2022-08-03T10:43:29;5.90;;;2.95;;
26634;SDS011;14490;54.208;37.686;2022-08-03T10:46:03;6.63;;;2.75;;
26634;SDS011;14490;54.208;37.686;2022-08-03T10:48:34;4.13;;;2.42;;
26634;SDS011;14490;54.208;37.686;2022-08-03T10:51:02;3.25;;;2.90;;
26634;SDS011;14490;54.208;37.686;2022-08-03T10:53:34;5.22;;;2.75;;
26634;SDS011;14490;54.208;37.686;2022-08-03T10:56:05;12.15;;;4.35;;
26634;SDS011;14490;54.208;37.686;2022-08-03T11:05:43;6.05;;;3.00;;
26634;SDS011;14490;54.208;37.686;2022-08-03T11:08:19;7.22;;;3.08;;
26634;SDS011;14490;54.208;37.686;2022-08-03T11:10:54;3.17;;;2.80;;
26634;SDS011;14490;54.208;37.686;2022-08-03T11:13:29;11.45;;;3.30;;
26634;SDS011;14490;54.208;37.686;2022-08-03T11:15:59;11.00;;;3.65;;
26634;SDS011;14490;54.208;37.686;2022-08-03T11:18:30;5.55;;;2.50;;
26634;SDS011;14490;54.208;37.686;2022-08-03T11:20:59;5.28;;;3.20;;
26634;SDS011;14490;54.208;37.686;2022-08-03T11:23:39;3.30;;;2.80;;
26634;SDS011;14490;54.208;37.686;2022-08-03T11:26:12;18.15;;;3.50;;
26634;SDS011;14490;54.208;37.686;2022-08-03T11:28:45;6.90;;;3.03;;
26634;SDS011;14490;54.208;37.686;2022-08-03T11:34:23;5.28;;;3.42;;
26634;SDS011;14490;54.208;37.686;2022-08-03T11:39:52;7.18;;;2.95;;
26634;SDS011;14490;54.208;37.686;2022-08-03T11:42:39;6.38;;;3.10;;
26634;SDS011;14490;54.208;37.686;2022-08-03T11:45:13;6.13;;;3.40;;
26634;SDS011;14490;54.208;37.686;2022-08-03T11:47:44;4.85;;;2.58;;
26634;SDS011;14490;54.208;37.686;2022-08-03T11:50:12;2.90;;;2.10;;
26634;SDS011;14490;54.208;37.686;2022-08-03T11:52:41;8.70;;;2.80;;
26634;SDS011;14490;54.208;37.686;2022-08-03T11:55:13;7.18;;;3.03;;
26634;SDS011;14490;54.208;37.686;2022-08-03T11:57:44;2.97;;;2.60;;
26634;SDS011;14490;54.208;37.686;2022-08-03T12:00:21;17.75;;;3.72;;
26634;SDS011;14490;54.208;37.686;2022-08-03T12:02:57;10.50;;;3.03;;
26634;SDS011;14490;54.208;37.686;2022-08-03T12:08:03;6.47;;;3.15;;
26634;SDS011;14490;54.208;37.686;2022-08-03T12:10:34;6.88;;;2.92;;
26634;SDS011;14490;54.208;37.686;2022-08-03T12:13:03;3.10;;;2.30;;
26634;SDS011;14490;54.208;37.686;2022-08-03T12:15:35;6.05;;;2.35;;
26634;SDS011;14490;54.208;37.686;2022-08-03T12:18:12;2.80;;;2.60;;
26634;SDS011;14490;54.208;37.686;2022-08-03T12:20:42;6.13;;;2.47;;
26634;SDS011;14490;54.208;37.686;2022-08-03T12:23:10;6.13;;;3.22;;
26634;SDS011;14490;54.208;37.686;2022-08-03T12:25:39;2.42;;;2.22;;
26634;SDS011;14490;54.208;37.686;2022-08-03T12:28:11;3.83;;;2.30;;
26634;SDS011;14490;54.208;37.686;2022-08-03T12:30:48;7.63;;;2.90;;
26634;SDS011;14490;54.208;37.686;2022-08-03T12:33:19;5.20;;;2.15;;
26634;SDS011;14490;54.208;37.686;2022-08-03T12:36:03;8.02;;;3.65;;
26634;SDS011;14490;54.208;37.686;2022-08-03T12:38:33;5.03;;;3.67;;
26634;SDS011;14490;54.208;37.686;2022-08-03T12:41:04;6.43;;;2.80;;
26634;SDS011;14490;54.208;37.686;2022-08-03T12:43:45;6.20;;;2.90;;
26634;SDS011;14490;54.208;37.686;2022-08-03T12:46:16;9.48;;;2.67;;
26634;SDS011;14490;54.208;37.686;2022-08-03T12:49:01;6.97;;;2.97;;
26634;SDS011;14490;54.208;37.686;2022-08-03T12:51:32;3.30;;;3.00;;
26634;SDS011;14490;54.208;37.686;2022-08-03T12:54:02;3.28;;;2.97;;
26634;SDS011;14490;54.208;37.686;2022-08-03T12:56:31;5.13;;;2.33;;
26634;SDS011;14490;54.208;37.686;2022-08-03T12:58:59;4.20;;;2.55;;
26634;SDS011;14490;54.208;37.686;2022-08-03T13:01:36;4.15;;;2.35;;
26634;SDS011;14490;54.208;37.686;2022-08-03T13:04:03;8.88;;;4.05;;
26634;SDS011;14490;54.208;37.686;2022-08-03T13:06:31;8.40;;;2.88;;
26634;SDS011;14490;54.208;37.686;2022-08-03T13:09:03;7.93;;;3.50;;
26634;SDS011;14490;54.208;37.686;2022-08-03T13:11:33;6.68;;;4.00;;
26634;SDS011;14490;54.208;37.686;2022-08-03T13:14:00;7.53;;;3.60;;
26634;SDS011;14490;54.208;37.686;2022-08-03T13:16:28;22.02;;;4.55;;
26634;SDS011;14490;54.208;37.686;2022-08-03T13:18:57;2.67;;;2.47;;
26634;SDS011;14490;54.208;37.686;2022-08-03T13:21:25;6.70;;;2.72;;
26634;SDS011;14490;54.208;37.686;2022-08-03T13:23:53;2.72;;;2.20;;
26634;SDS011;14490;54.208;37.686;2022-08-03T13:26:21;5.40;;;2.13;;
26634;SDS011;14490;54.208;37.686;2022-08-03T13:28:48;2.75;;;2.40;;
26634;SDS011;14490;54.208;37.686;2022-08-03T13:31:16;6.65;;;3.03;;
26634;SDS011;14490;54.208;37.686;2022-08-03T13:33:44;3.85;;;2.85;;
26634;SDS011;14490;54.208;37.686;2022-08-03T13:36:13;7.28;;;2.90;;
26634;SDS011;14490;54.208;37.686;2022-08-03T13:38:41;6.60;;;3.08;;
26634;SDS011;14490;54.208;37.686;2022-08-03T13:41:09;5.57;;;2.67;;
26634;SDS011;14490;54.208;37.686;2022-08-03T13:43:36;5.25;;;2.30;;
26634;SDS011;14490;54.208;37.686;2022-08-03T13:46:04;2.95;;;2.42;;
26634;SDS011;14490;54.208;37.686;2022-08-03T13:48:31;12.75;;;3.00;;
26634;SDS011;14490;54.208;37.686;2022-08-03T13:50:59;3.08;;;2.40;;
26634;SDS011;14490;54.208;37.686;2022-08-03T13:53:27;3.72;;;2.00;;
26634;SDS011;14490;54.208;37.686;2022-08-03T13:55:55;5.40;;;2.70;;
26634;SDS011;14490;54.208;37.686;2022-08-03T13:58:23;4.90;;;2.80;;
26634;SDS011;14490;54.208;37.686;2022-08-03T14:00:50;3.88;;;3.00;;
26634;SDS011;14490;54.208;37.686;2022-08-03T14:03:18;2.45;;;1.98;;
26634;SDS011;14490;54.208;37.686;2022-08-03T14:05:45;3.00;;;2.67;;
26634;SDS011;14490;54.208;37.686;2022-08-03T14:08:13;5.78;;;2.70;;
26634;SDS011;14490;54.208;37.686;2022-08-03T14:10:43;4.50;;;2.50;;
26634;SDS011;14490;54.208;37.686;2022-08-03T14:13:12;2.45;;;2.15;;
26634;SDS011;14490;54.208;37.686;2022-08-03T14:15:40;9.93;;;2.97;;
26634;SDS011;14490;54.208;37.686;2022-08-03T14:18:07;4.60;;;2.45;;
26634;SDS011;14490;54.208;37.686;2022-08-03T14:20:35;4.70;;;2.65;;
26634;SDS011;14490;54.208;37.686;2022-08-03T14:23:03;5.43;;;2.00;;
26634;SDS011;14490;54.208;37.686;2022-08-03T14:25:31;3.28;;;2.28;;
26634;SDS011;14490;54.208;37.686;2022-08-03T14:28:00;5.53;;;3.22;;
26634;SDS011;14490;54.208;37.686;2022-08-03T14:30:27;8.45;;;2.40;;
26634;SDS011;14490;54.208;37.686;2022-08-03T14:32:55;10.63;;;2.50;;
26634;SDS011;14490;54.208;37.686;2022-08-03T14:35:22;4.32;;;2.30;;
26634;SDS011;14490;54.208;37.686;2022-08-03T14:37:50;4.90;;;1.73;;
26634;SDS011;14490;54.208;37.686;2022-08-03T14:40:18;5.28;;;2.80;;
26634;SDS011;14490;54.208;37.686;2022-08-03T14:42:47;4.53;;;2.67;;
26634;SDS011;14490;54.208;37.686;2022-08-03T14:45:16;8.40;;;2.65;;
26634;SDS011;14490;54.208;37.686;2022-08-03T14:47:44;5.85;;;2.95;;
26634;SDS011;14490;54.208;37.686;2022-08-03T14:50:11;10.10;;;7.07;;
26634;SDS011;14490;54.208;37.686;2022-08-03T14:52:39;6.70;;;2.78;;
26634;SDS011;14490;54.208;37.686;2022-08-03T14:55:07;3.85;;;2.25;;
26634;SDS011;14490;54.208;37.686;2022-08-03T14:57:35;4.10;;;2.17;;
26634;SDS011;14490;54.208;37.686;2022-08-03T15:00:03;9.63;;;3.13;;
26634;SDS011;14490;54.208;37.686;2022-08-03T15:02:33;3.13;;;2.67;;
26634;SDS011;14490;54.208;37.686;2022-08-03T15:05:01;9.02;;;2.38;;
26634;SDS011;14490;54.208;37.686;2022-08-03T15:07:29;5.13;;;2.20;;
26634;SDS011;14490;54.208;37.686;2022-08-03T15:09:56;5.53;;;2.40;;
26634;SDS011;14490;54.208;37.686;2022-08-03T15:12:25;8.25;;;3.03;;
26634;SDS011;14490;54.208;37.686;2022-08-03T15:14:52;5.10;;;3.13;;